sensor_id;sensor_type;location;lat;lon;timestamp;P1;durP1;ratioP1;P2;durP2;ratioP2
21060;SDS011;10689;50.836;3.266;2022-09-14T00:00:45;13.07;;;9.40;;
21060;SDS011;10689;50.836;3.266;2022-09-14T00:03:11;12.45;;;9.88;;
21060;SDS011;10689;50.836;3.266;2022-09-14T00:05:37;15.18;;;9.13;;
21060;SDS011;10689;50.836;3.266;2022-09-14T00:08:03;15.00;;;10.52;;
21060;SDS011;10689;50.836;3.266;2022-09-14T00:10:29;12.32;;;9.85;;
21060;SDS011;10689;50.836;3.266;2022-09-14T00:12:54;13.68;;;9.35;;
21060;SDS011;10689;50.836;3.266;2022-09-14T00:15:20;14.23;;;9.45;;
21060;SDS011;10689;50.836;3.266;2022-09-14T00:17:47;13.82;;;9.70;;
21060;SDS011;10689;50.836;3.266;2022-09-14T00:20:13;12.48;;;9.57;;
21060;SDS011;10689;50.836;3.266;2022-09-14T00:22:38;12.95;;;9.32;;
21060;SDS011;10689;50.836;3.266;2022-09-14T00:25:04;10.88;;;9.48;;
21060;SDS011;10689;50.836;3.266;2022-09-14T00:27:30;14.95;;;10.27;;
21060;SDS011;10689;50.836;3.266;2022-09-14T00:29:57;12.00;;;9.23;;
21060;SDS011;10689;50.836;3.266;2022-09-14T00:32:23;12.85;;;9.27;;
21060;SDS011;10689;50.836;3.266;2022-09-14T00:34:49;15.35;;;9.90;;
21060;SDS011;10689;50.836;3.266;2022-09-14T00:37:15;11.52;;;9.25;;
21060;SDS011;10689;50.836;3.266;2022-09-14T00:39:40;14.90;;;10.00;;
21060;SDS011;10689;50.836;3.266;2022-09-14T00:42:09;12.30;;;9.65;;
21060;SDS011;10689;50.836;3.266;2022-09-14T00:47:05;11.07;;;8.80;;
21060;SDS011;10689;50.836;3.266;2022-09-14T00:49:37;12.45;;;9.85;;
21060;SDS011;10689;50.836;3.266;2022-09-14T00:52:15;10.80;;;9.48;;
21060;SDS011;10689;50.836;3.266;2022-09-14T00:54:45;14.32;;;10.68;;
21060;SDS011;10689;50.836;3.266;2022-09-14T00:57:14;13.95;;;8.70;;
21060;SDS011;10689;50.836;3.266;2022-09-14T00:59:41;13.00;;;9.73;;
21060;SDS011;10689;50.836;3.266;2022-09-14T01:02:10;12.18;;;9.68;;
21060;SDS011;10689;50.836;3.266;2022-09-14T01:04:41;11.48;;;8.95;;
21060;SDS011;10689;50.836;3.266;2022-09-14T01:07:20;12.10;;;9.52;;
21060;SDS011;10689;50.836;3.266;2022-09-14T01:12:19;12.30;;;9.75;;
21060;SDS011;10689;50.836;3.266;2022-09-14T01:21:18;14.70;;;10.18;;
21060;SDS011;10689;50.836;3.266;2022-09-14T01:34:24;12.90;;;8.40;;
21060;SDS011;10689;50.836;3.266;2022-09-14T01:37:12;14.68;;;8.32;;
21060;SDS011;10689;50.836;3.266;2022-09-14T01:39:43;12.95;;;9.02;;
21060;SDS011;10689;50.836;3.266;2022-09-14T01:42:13;11.05;;;8.30;;
21060;SDS011;10689;50.836;3.266;2022-09-14T01:44:41;11.85;;;9.23;;
21060;SDS011;10689;50.836;3.266;2022-09-14T01:47:13;13.60;;;8.95;;
21060;SDS011;10689;50.836;3.266;2022-09-14T01:49:43;19.70;;;9.70;;
21060;SDS011;10689;50.836;3.266;2022-09-14T01:52:17;13.65;;;8.60;;
21060;SDS011;10689;50.836;3.266;2022-09-14T01:54:52;12.32;;;9.02;;
21060;SDS011;10689;50.836;3.266;2022-09-14T01:57:22;11.15;;;8.35;;
21060;SDS011;10689;50.836;3.266;2022-09-14T01:59:49;13.35;;;8.50;;
21060;SDS011;10689;50.836;3.266;2022-09-14T02:02:54;11.63;;;8.95;;
21060;SDS011;10689;50.836;3.266;2022-09-14T02:06:04;14.95;;;8.75;;
21060;SDS011;10689;50.836;3.266;2022-09-14T02:08:12;14.25;;;9.68;;
21060;SDS011;10689;50.836;3.266;2022-09-14T02:10:38;15.63;;;8.88;;
21060;SDS011;10689;50.836;3.266;2022-09-14T02:13:04;15.05;;;8.90;;
21060;SDS011;10689;50.836;3.266;2022-09-14T02:15:31;13.23;;;8.65;;
21060;SDS011;10689;50.836;3.266;2022-09-14T02:17:59;14.27;;;8.98;;
21060;SDS011;10689;50.836;3.266;2022-09-14T02:20:33;10.00;;;8.48;;
21060;SDS011;10689;50.836;3.266;2022-09-14T02:23:04;13.73;;;9.30;;
21060;SDS011;10689;50.836;3.266;2022-09-14T02:25:30;13.77;;;9.45;;
21060;SDS011;10689;50.836;3.266;2022-09-14T02:27:56;16.50;;;10.32;;
21060;SDS011;10689;50.836;3.266;2022-09-14T02:30:22;14.38;;;8.82;;
21060;SDS011;10689;50.836;3.266;2022-09-14T02:35:44;12.18;;;8.95;;
21060;SDS011;10689;50.836;3.266;2022-09-14T02:43:51;15.55;;;8.85;;
21060;SDS011;10689;50.836;3.266;2022-09-14T02:46:45;11.77;;;8.30;;
21060;SDS011;10689;50.836;3.266;2022-09-14T02:52:15;13.98;;;8.98;;
21060;SDS011;10689;50.836;3.266;2022-09-14T02:54:50;12.00;;;8.93;;
21060;SDS011;10689;50.836;3.266;2022-09-14T03:00:27;14.52;;;9.98;;
21060;SDS011;10689;50.836;3.266;2022-09-14T03:02:54;12.98;;;8.82;;
21060;SDS011;10689;50.836;3.266;2022-09-14T03:05:19;15.85;;;8.57;;
21060;SDS011;10689;50.836;3.266;2022-09-14T03:07:45;12.40;;;8.93;;
21060;SDS011;10689;50.836;3.266;2022-09-14T03:10:11;13.77;;;9.15;;
21060;SDS011;10689;50.836;3.266;2022-09-14T03:12:37;13.18;;;8.30;;
21060;SDS011;10689;50.836;3.266;2022-09-14T03:15:08;15.27;;;8.73;;
21060;SDS011;10689;50.836;3.266;2022-09-14T03:17:34;14.95;;;8.48;;
21060;SDS011;10689;50.836;3.266;2022-09-14T03:20:00;15.30;;;10.05;;
21060;SDS011;10689;50.836;3.266;2022-09-14T03:22:26;15.63;;;10.05;;
21060;SDS011;10689;50.836;3.266;2022-09-14T03:24:52;14.18;;;10.20;;
21060;SDS011;10689;50.836;3.266;2022-09-14T03:27:17;14.98;;;9.35;;
21060;SDS011;10689;50.836;3.266;2022-09-14T03:29:43;14.55;;;9.80;;
21060;SDS011;10689;50.836;3.266;2022-09-14T03:32:09;13.38;;;9.82;;
21060;SDS011;10689;50.836;3.266;2022-09-14T03:34:36;14.85;;;10.95;;
21060;SDS011;10689;50.836;3.266;2022-09-14T03:37:02;12.68;;;9.57;;
21060;SDS011;10689;50.836;3.266;2022-09-14T03:39:28;15.48;;;10.13;;
21060;SDS011;10689;50.836;3.266;2022-09-14T03:41:53;16.73;;;12.10;;
21060;SDS011;10689;50.836;3.266;2022-09-14T03:44:19;16.13;;;11.07;;
21060;SDS011;10689;50.836;3.266;2022-09-14T03:46:45;15.93;;;10.70;;
21060;SDS011;10689;50.836;3.266;2022-09-14T03:49:10;20.17;;;12.35;;
21060;SDS011;10689;50.836;3.266;2022-09-14T03:51:36;15.02;;;11.25;;
21060;SDS011;10689;50.836;3.266;2022-09-14T03:54:02;16.60;;;12.20;;
21060;SDS011;10689;50.836;3.266;2022-09-14T03:56:27;20.40;;;11.70;;
21060;SDS011;10689;50.836;3.266;2022-09-14T03:58:53;14.20;;;11.52;;
21060;SDS011;10689;50.836;3.266;2022-09-14T04:01:20;16.15;;;12.88;;
21060;SDS011;10689;50.836;3.266;2022-09-14T04:03:47;16.73;;;13.32;;
21060;SDS011;10689;50.836;3.266;2022-09-14T04:06:13;22.20;;;13.80;;
21060;SDS011;10689;50.836;3.266;2022-09-14T04:08:40;24.25;;;14.15;;
21060;SDS011;10689;50.836;3.266;2022-09-14T04:11:09;19.98;;;14.02;;
21060;SDS011;10689;50.836;3.266;2022-09-14T04:13:38;21.70;;;13.95;;
21060;SDS011;10689;50.836;3.266;2022-09-14T04:16:05;20.35;;;13.90;;
21060;SDS011;10689;50.836;3.266;2022-09-14T04:18:30;21.17;;;15.02;;
21060;SDS011;10689;50.836;3.266;2022-09-14T04:21:01;24.20;;;14.95;;
21060;SDS011;10689;50.836;3.266;2022-09-14T04:23:29;21.05;;;14.55;;
21060;SDS011;10689;50.836;3.266;2022-09-14T04:25:55;18.48;;;14.57;;
21060;SDS011;10689;50.836;3.266;2022-09-14T04:28:21;19.55;;;14.35;;
21060;SDS011;10689;50.836;3.266;2022-09-14T04:30:53;22.52;;;15.18;;
21060;SDS011;10689;50.836;3.266;2022-09-14T04:33:19;24.75;;;15.15;;
21060;SDS011;10689;50.836;3.266;2022-09-14T04:35:45;23.75;;;14.95;;
21060;SDS011;10689;50.836;3.266;2022-09-14T04:38:20;21.98;;;15.32;;
21060;SDS011;10689;50.836;3.266;2022-09-14T04:40:46;21.25;;;15.55;;
21060;SDS011;10689;50.836;3.266;2022-09-14T04:43:11;22.02;;;15.57;;
21060;SDS011;10689;50.836;3.266;2022-09-14T04:45:37;20.27;;;15.85;;
21060;SDS011;10689;50.836;3.266;2022-09-14T04:48:02;26.27;;;17.25;;
21060;SDS011;10689;50.836;3.266;2022-09-14T04:50:30;22.33;;;16.10;;
21060;SDS011;10689;50.836;3.266;2022-09-14T04:52:56;26.70;;;18.60;;
21060;SDS011;10689;50.836;3.266;2022-09-14T04:55:22;23.85;;;17.15;;
21060;SDS011;10689;50.836;3.266;2022-09-14T04:57:48;30.83;;;17.85;;
21060;SDS011;10689;50.836;3.266;2022-09-14T05:00:15;26.65;;;18.02;;
21060;SDS011;10689;50.836;3.266;2022-09-14T05:02:40;29.10;;;18.05;;
21060;SDS011;10689;50.836;3.266;2022-09-14T05:05:06;27.05;;;18.00;;
21060;SDS011;10689;50.836;3.266;2022-09-14T05:07:32;26.83;;;18.17;;
21060;SDS011;10689;50.836;3.266;2022-09-14T05:09:58;27.70;;;19.65;;
21060;SDS011;10689;50.836;3.266;2022-09-14T05:12:24;28.13;;;19.00;;
21060;SDS011;10689;50.836;3.266;2022-09-14T05:14:49;23.48;;;17.88;;
21060;SDS011;10689;50.836;3.266;2022-09-14T05:17:15;26.73;;;18.45;;
21060;SDS011;10689;50.836;3.266;2022-09-14T05:19:41;29.75;;;18.92;;
21060;SDS011;10689;50.836;3.266;2022-09-14T05:22:07;29.83;;;21.38;;
21060;SDS011;10689;50.836;3.266;2022-09-14T05:24:32;30.75;;;20.38;;
21060;SDS011;10689;50.836;3.266;2022-09-14T05:26:58;26.17;;;19.05;;
21060;SDS011;10689;50.836;3.266;2022-09-14T05:29:24;30.00;;;19.80;;
21060;SDS011;10689;50.836;3.266;2022-09-14T05:31:49;29.17;;;19.55;;
21060;SDS011;10689;50.836;3.266;2022-09-14T05:34:15;26.40;;;18.55;;
21060;SDS011;10689;50.836;3.266;2022-09-14T05:36:41;25.33;;;18.92;;
21060;SDS011;10689;50.836;3.266;2022-09-14T05:39:07;29.02;;;19.27;;
21060;SDS011;10689;50.836;3.266;2022-09-14T05:41:34;27.13;;;19.83;;
21060;SDS011;10689;50.836;3.266;2022-09-14T05:44:01;25.50;;;18.50;;
21060;SDS011;10689;50.836;3.266;2022-09-14T05:46:27;26.60;;;17.73;;
21060;SDS011;10689;50.836;3.266;2022-09-14T05:48:53;28.23;;;18.35;;
21060;SDS011;10689;50.836;3.266;2022-09-14T05:51:20;27.90;;;17.52;;
21060;SDS011;10689;50.836;3.266;2022-09-14T05:53:47;28.52;;;17.13;;
21060;SDS011;10689;50.836;3.266;2022-09-14T05:56:14;26.95;;;18.38;;
21060;SDS011;10689;50.836;3.266;2022-09-14T05:58:40;32.45;;;18.05;;
21060;SDS011;10689;50.836;3.266;2022-09-14T06:01:08;24.35;;;16.52;;
21060;SDS011;10689;50.836;3.266;2022-09-14T06:03:35;26.15;;;17.27;;
21060;SDS011;10689;50.836;3.266;2022-09-14T06:06:02;32.10;;;17.52;;
21060;SDS011;10689;50.836;3.266;2022-09-14T06:08:29;28.55;;;16.73;;
21060;SDS011;10689;50.836;3.266;2022-09-14T06:10:54;28.48;;;16.92;;
21060;SDS011;10689;50.836;3.266;2022-09-14T06:13:20;25.50;;;16.02;;
21060;SDS011;10689;50.836;3.266;2022-09-14T06:15:47;24.30;;;15.73;;
21060;SDS011;10689;50.836;3.266;2022-09-14T06:18:13;25.40;;;16.40;;
21060;SDS011;10689;50.836;3.266;2022-09-14T06:20:39;20.77;;;14.68;;
21060;SDS011;10689;50.836;3.266;2022-09-14T06:23:04;23.90;;;15.13;;
21060;SDS011;10689;50.836;3.266;2022-09-14T06:25:30;26.42;;;15.02;;
21060;SDS011;10689;50.836;3.266;2022-09-14T06:27:56;19.60;;;13.43;;
21060;SDS011;10689;50.836;3.266;2022-09-14T06:30:21;22.73;;;13.80;;
21060;SDS011;10689;50.836;3.266;2022-09-14T06:32:47;17.30;;;12.00;;
21060;SDS011;10689;50.836;3.266;2022-09-14T06:35:13;24.17;;;13.82;;
21060;SDS011;10689;50.836;3.266;2022-09-14T06:37:39;19.35;;;12.57;;
21060;SDS011;10689;50.836;3.266;2022-09-14T06:40:05;18.58;;;13.07;;
21060;SDS011;10689;50.836;3.266;2022-09-14T06:42:31;19.00;;;11.60;;
21060;SDS011;10689;50.836;3.266;2022-09-14T06:44:56;20.40;;;13.20;;
21060;SDS011;10689;50.836;3.266;2022-09-14T06:47:23;16.27;;;11.98;;
21060;SDS011;10689;50.836;3.266;2022-09-14T06:49:48;16.08;;;11.13;;
21060;SDS011;10689;50.836;3.266;2022-09-14T06:52:15;18.75;;;11.82;;
21060;SDS011;10689;50.836;3.266;2022-09-14T06:54:40;19.20;;;10.45;;
21060;SDS011;10689;50.836;3.266;2022-09-14T06:57:08;19.65;;;11.27;;
21060;SDS011;10689;50.836;3.266;2022-09-14T06:59:34;16.02;;;10.55;;
21060;SDS011;10689;50.836;3.266;2022-09-14T07:02:00;18.00;;;10.55;;
21060;SDS011;10689;50.836;3.266;2022-09-14T07:04:25;18.27;;;10.63;;
21060;SDS011;10689;50.836;3.266;2022-09-14T07:06:51;15.23;;;10.00;;
21060;SDS011;10689;50.836;3.266;2022-09-14T07:09:17;16.67;;;11.23;;
21060;SDS011;10689;50.836;3.266;2022-09-14T07:11:43;16.60;;;10.25;;
21060;SDS011;10689;50.836;3.266;2022-09-14T07:14:09;16.30;;;10.55;;
21060;SDS011;10689;50.836;3.266;2022-09-14T07:16:36;15.95;;;10.35;;
21060;SDS011;10689;50.836;3.266;2022-09-14T07:19:04;14.18;;;9.98;;
21060;SDS011;10689;50.836;3.266;2022-09-14T07:21:31;14.43;;;9.63;;
21060;SDS011;10689;50.836;3.266;2022-09-14T07:23:58;14.25;;;10.30;;
21060;SDS011;10689;50.836;3.266;2022-09-14T07:26:34;21.15;;;10.93;;
21060;SDS011;10689;50.836;3.266;2022-09-14T07:29:08;13.25;;;9.60;;
21060;SDS011;10689;50.836;3.266;2022-09-14T07:31:40;13.95;;;10.07;;
21060;SDS011;10689;50.836;3.266;2022-09-14T07:34:08;14.60;;;10.30;;
21060;SDS011;10689;50.836;3.266;2022-09-14T07:36:36;16.17;;;10.25;;
21060;SDS011;10689;50.836;3.266;2022-09-14T07:39:05;17.30;;;10.07;;
21060;SDS011;10689;50.836;3.266;2022-09-14T07:41:33;16.02;;;10.18;;
21060;SDS011;10689;50.836;3.266;2022-09-14T07:44:01;19.70;;;11.05;;
21060;SDS011;10689;50.836;3.266;2022-09-14T07:46:32;16.88;;;10.75;;
21060;SDS011;10689;50.836;3.266;2022-09-14T07:49:03;18.70;;;11.23;;
21060;SDS011;10689;50.836;3.266;2022-09-14T07:51:30;17.75;;;11.77;;
21060;SDS011;10689;50.836;3.266;2022-09-14T07:53:57;20.63;;;10.85;;
21060;SDS011;10689;50.836;3.266;2022-09-14T07:56:24;14.68;;;10.70;;
21060;SDS011;10689;50.836;3.266;2022-09-14T07:58:54;20.58;;;12.00;;
21060;SDS011;10689;50.836;3.266;2022-09-14T08:01:23;16.90;;;11.45;;
21060;SDS011;10689;50.836;3.266;2022-09-14T08:03:49;20.45;;;13.07;;
21060;SDS011;10689;50.836;3.266;2022-09-14T08:06:19;21.45;;;12.05;;
21060;SDS011;10689;50.836;3.266;2022-09-14T08:08:50;22.70;;;12.07;;
21060;SDS011;10689;50.836;3.266;2022-09-14T08:11:25;25.20;;;13.82;;
21060;SDS011;10689;50.836;3.266;2022-09-14T08:13:59;22.65;;;12.27;;
21060;SDS011;10689;50.836;3.266;2022-09-14T08:16:28;21.95;;;11.88;;
21060;SDS011;10689;50.836;3.266;2022-09-14T08:18:56;16.42;;;10.70;;
21060;SDS011;10689;50.836;3.266;2022-09-14T08:21:24;19.70;;;11.43;;
21060;SDS011;10689;50.836;3.266;2022-09-14T08:23:50;17.15;;;11.25;;
21060;SDS011;10689;50.836;3.266;2022-09-14T08:26:18;19.42;;;11.48;;
21060;SDS011;10689;50.836;3.266;2022-09-14T08:28:46;20.05;;;11.65;;
21060;SDS011;10689;50.836;3.266;2022-09-14T08:31:14;20.60;;;11.45;;
21060;SDS011;10689;50.836;3.266;2022-09-14T08:33:59;22.73;;;12.93;;
21060;SDS011;10689;50.836;3.266;2022-09-14T08:36:29;21.70;;;11.50;;
21060;SDS011;10689;50.836;3.266;2022-09-14T08:39:03;19.25;;;11.10;;
21060;SDS011;10689;50.836;3.266;2022-09-14T08:41:37;18.58;;;11.35;;
21060;SDS011;10689;50.836;3.266;2022-09-14T08:51:46;20.13;;;11.15;;
21060;SDS011;10689;50.836;3.266;2022-09-14T08:54:12;16.85;;;9.88;;
21060;SDS011;10689;50.836;3.266;2022-09-14T08:56:39;18.88;;;10.55;;
21060;SDS011;10689;50.836;3.266;2022-09-14T09:02:15;17.98;;;9.52;;
21060;SDS011;10689;50.836;3.266;2022-09-14T09:05:12;15.75;;;9.32;;
21060;SDS011;10689;50.836;3.266;2022-09-14T09:10:32;12.68;;;8.88;;
21060;SDS011;10689;50.836;3.266;2022-09-14T09:13:03;13.35;;;8.23;;
21060;SDS011;10689;50.836;3.266;2022-09-14T09:18:08;13.63;;;9.52;;
21060;SDS011;10689;50.836;3.266;2022-09-14T09:20:47;15.32;;;9.27;;
21060;SDS011;10689;50.836;3.266;2022-09-14T09:23:17;14.57;;;9.00;;
21060;SDS011;10689;50.836;3.266;2022-09-14T09:25:53;12.02;;;8.15;;
21060;SDS011;10689;50.836;3.266;2022-09-14T09:28:25;15.90;;;9.02;;
21060;SDS011;10689;50.836;3.266;2022-09-14T09:30:53;13.95;;;8.85;;
21060;SDS011;10689;50.836;3.266;2022-09-14T09:33:22;13.95;;;9.00;;
21060;SDS011;10689;50.836;3.266;2022-09-14T09:35:51;13.80;;;8.38;;
21060;SDS011;10689;50.836;3.266;2022-09-14T09:38:19;12.90;;;8.50;;
21060;SDS011;10689;50.836;3.266;2022-09-14T09:43:31;13.38;;;7.80;;
21060;SDS011;10689;50.836;3.266;2022-09-14T09:46:04;10.00;;;7.30;;
21060;SDS011;10689;50.836;3.266;2022-09-14T09:53:44;13.35;;;7.28;;
21060;SDS011;10689;50.836;3.266;2022-09-14T09:56:24;9.50;;;7.68;;
21060;SDS011;10689;50.836;3.266;2022-09-14T09:58:51;9.07;;;7.43;;
21060;SDS011;10689;50.836;3.266;2022-09-14T10:01:18;11.93;;;7.82;;
21060;SDS011;10689;50.836;3.266;2022-09-14T10:04:32;11.38;;;8.05;;
21060;SDS011;10689;50.836;3.266;2022-09-14T10:06:49;11.23;;;8.13;;
21060;SDS011;10689;50.836;3.266;2022-09-14T10:09:20;12.45;;;8.20;;
21060;SDS011;10689;50.836;3.266;2022-09-14T10:12:09;10.80;;;7.28;;
21060;SDS011;10689;50.836;3.266;2022-09-14T10:14:39;10.93;;;7.65;;
21060;SDS011;10689;50.836;3.266;2022-09-14T10:17:18;9.75;;;7.32;;
21060;SDS011;10689;50.836;3.266;2022-09-14T10:19:49;10.73;;;7.70;;
21060;SDS011;10689;50.836;3.266;2022-09-14T10:24:59;9.10;;;6.78;;
21060;SDS011;10689;50.836;3.266;2022-09-14T10:30:05;12.68;;;8.27;;
21060;SDS011;10689;50.836;3.266;2022-09-14T10:32:36;8.88;;;7.10;;
21060;SDS011;10689;50.836;3.266;2022-09-14T10:35:14;9.98;;;7.95;;
21060;SDS011;10689;50.836;3.266;2022-09-14T10:40:37;8.48;;;7.20;;
21060;SDS011;10689;50.836;3.266;2022-09-14T10:45:57;10.63;;;7.60;;
21060;SDS011;10689;50.836;3.266;2022-09-14T10:51:34;11.07;;;7.47;;
21060;SDS011;10689;50.836;3.266;2022-09-14T11:07:33;11.50;;;8.18;;
21060;SDS011;10689;50.836;3.266;2022-09-14T11:10:04;11.35;;;8.15;;
21060;SDS011;10689;50.836;3.266;2022-09-14T11:20:47;11.57;;;8.02;;
21060;SDS011;10689;50.836;3.266;2022-09-14T11:23:51;9.80;;;7.47;;
21060;SDS011;10689;50.836;3.266;2022-09-14T11:26:39;11.80;;;7.60;;
21060;SDS011;10689;50.836;3.266;2022-09-14T11:29:33;9.63;;;8.35;;
21060;SDS011;10689;50.836;3.266;2022-09-14T11:34:41;12.38;;;9.98;;
21060;SDS011;10689;50.836;3.266;2022-09-14T11:37:13;12.27;;;9.82;;
21060;SDS011;10689;50.836;3.266;2022-09-14T11:39:42;11.85;;;9.93;;
21060;SDS011;10689;50.836;3.266;2022-09-14T11:42:21;15.65;;;10.35;;
21060;SDS011;10689;50.836;3.266;2022-09-14T11:45:01;11.75;;;9.55;;
21060;SDS011;10689;50.836;3.266;2022-09-14T11:47:36;12.40;;;9.35;;
21060;SDS011;10689;50.836;3.266;2022-09-14T11:52:41;12.55;;;9.65;;
21060;SDS011;10689;50.836;3.266;2022-09-14T11:55:08;12.50;;;10.02;;
21060;SDS011;10689;50.836;3.266;2022-09-14T11:57:39;12.82;;;9.82;;
21060;SDS011;10689;50.836;3.266;2022-09-14T12:05:47;14.20;;;10.32;;
21060;SDS011;10689;50.836;3.266;2022-09-14T12:08:26;13.77;;;11.38;;
21060;SDS011;10689;50.836;3.266;2022-09-14T12:13:35;14.52;;;10.75;;
21060;SDS011;10689;50.836;3.266;2022-09-14T12:16:07;14.20;;;9.60;;
21060;SDS011;10689;50.836;3.266;2022-09-14T12:18:37;15.43;;;11.45;;
21060;SDS011;10689;50.836;3.266;2022-09-14T12:28:47;15.00;;;11.25;;
21060;SDS011;10689;50.836;3.266;2022-09-14T12:31:31;13.18;;;10.68;;
21060;SDS011;10689;50.836;3.266;2022-09-14T12:37:32;13.02;;;11.15;;
21060;SDS011;10689;50.836;3.266;2022-09-14T12:40:11;14.45;;;11.93;;
21060;SDS011;10689;50.836;3.266;2022-09-14T12:45:59;15.02;;;11.63;;
21060;SDS011;10689;50.836;3.266;2022-09-14T13:04:59;13.90;;;11.70;;
21060;SDS011;10689;50.836;3.266;2022-09-14T13:07:30;17.45;;;13.10;;
21060;SDS011;10689;50.836;3.266;2022-09-14T13:10:00;16.55;;;13.02;;
21060;SDS011;10689;50.836;3.266;2022-09-14T13:12:40;15.55;;;12.30;;
21060;SDS011;10689;50.836;3.266;2022-09-14T13:15:21;16.27;;;14.00;;
21060;SDS011;10689;50.836;3.266;2022-09-14T13:17:56;15.65;;;13.48;;
21060;SDS011;10689;50.836;3.266;2022-09-14T13:20:51;17.58;;;13.25;;
21060;SDS011;10689;50.836;3.266;2022-09-14T13:23:19;17.38;;;14.30;;
21060;SDS011;10689;50.836;3.266;2022-09-14T13:25:47;18.75;;;14.93;;
21060;SDS011;10689;50.836;3.266;2022-09-14T13:28:14;19.27;;;14.23;;
21060;SDS011;10689;50.836;3.266;2022-09-14T13:30:41;16.60;;;13.65;;
21060;SDS011;10689;50.836;3.266;2022-09-14T13:33:17;19.15;;;15.10;;
21060;SDS011;10689;50.836;3.266;2022-09-14T13:35:47;17.42;;;14.20;;
21060;SDS011;10689;50.836;3.266;2022-09-14T13:38:25;20.38;;;15.40;;
21060;SDS011;10689;50.836;3.266;2022-09-14T13:40:55;22.08;;;15.30;;
21060;SDS011;10689;50.836;3.266;2022-09-14T13:43:29;19.85;;;14.63;;
21060;SDS011;10689;50.836;3.266;2022-09-14T13:45:55;19.55;;;14.07;;
21060;SDS011;10689;50.836;3.266;2022-09-14T13:48:21;16.60;;;14.32;;
21060;SDS011;10689;50.836;3.266;2022-09-14T13:50:48;17.58;;;13.55;;
21060;SDS011;10689;50.836;3.266;2022-09-14T13:56:14;21.48;;;17.48;;
21060;SDS011;10689;50.836;3.266;2022-09-14T13:58:41;20.48;;;16.48;;
21060;SDS011;10689;50.836;3.266;2022-09-14T14:01:07;20.05;;;15.13;;
21060;SDS011;10689;50.836;3.266;2022-09-14T14:03:37;21.55;;;16.25;;
21060;SDS011;10689;50.836;3.266;2022-09-14T14:09:09;20.55;;;15.38;;
21060;SDS011;10689;50.836;3.266;2022-09-14T14:11:40;22.05;;;16.17;;
21060;SDS011;10689;50.836;3.266;2022-09-14T14:16:36;22.02;;;15.48;;
21060;SDS011;10689;50.836;3.266;2022-09-14T14:19:01;21.90;;;15.75;;
21060;SDS011;10689;50.836;3.266;2022-09-14T14:21:29;24.77;;;17.63;;
21060;SDS011;10689;50.836;3.266;2022-09-14T14:26:52;28.45;;;20.10;;
21060;SDS011;10689;50.836;3.266;2022-09-14T14:29:19;28.05;;;19.77;;
21060;SDS011;10689;50.836;3.266;2022-09-14T14:31:46;28.50;;;20.42;;
21060;SDS011;10689;50.836;3.266;2022-09-14T14:34:16;33.00;;;22.17;;
21060;SDS011;10689;50.836;3.266;2022-09-14T14:36:43;34.55;;;22.95;;
21060;SDS011;10689;50.836;3.266;2022-09-14T14:39:09;38.67;;;24.58;;
21060;SDS011;10689;50.836;3.266;2022-09-14T14:41:35;35.45;;;25.13;;
21060;SDS011;10689;50.836;3.266;2022-09-14T14:44:01;35.03;;;22.95;;
21060;SDS011;10689;50.836;3.266;2022-09-14T14:46:27;34.28;;;23.17;;
21060;SDS011;10689;50.836;3.266;2022-09-14T14:48:54;38.63;;;23.70;;
21060;SDS011;10689;50.836;3.266;2022-09-14T14:51:20;40.05;;;24.35;;
21060;SDS011;10689;50.836;3.266;2022-09-14T14:53:45;32.60;;;23.15;;
21060;SDS011;10689;50.836;3.266;2022-09-14T14:56:12;40.55;;;22.13;;
21060;SDS011;10689;50.836;3.266;2022-09-14T14:58:44;37.75;;;23.58;;
21060;SDS011;10689;50.836;3.266;2022-09-14T15:01:11;40.40;;;23.88;;
21060;SDS011;10689;50.836;3.266;2022-09-14T15:03:37;38.65;;;23.27;;
21060;SDS011;10689;50.836;3.266;2022-09-14T15:06:12;35.53;;;22.75;;
21060;SDS011;10689;50.836;3.266;2022-09-14T15:08:41;47.20;;;27.15;;
21060;SDS011;10689;50.836;3.266;2022-09-14T15:11:11;41.00;;;26.02;;
21060;SDS011;10689;50.836;3.266;2022-09-14T15:13:42;45.03;;;27.20;;
21060;SDS011;10689;50.836;3.266;2022-09-14T15:16:10;44.70;;;27.15;;
21060;SDS011;10689;50.836;3.266;2022-09-14T15:18:35;42.13;;;26.08;;
21060;SDS011;10689;50.836;3.266;2022-09-14T15:21:01;45.15;;;27.67;;
21060;SDS011;10689;50.836;3.266;2022-09-14T15:23:29;42.88;;;26.50;;
21060;SDS011;10689;50.836;3.266;2022-09-14T15:25:55;45.15;;;27.35;;
21060;SDS011;10689;50.836;3.266;2022-09-14T15:28:21;42.83;;;26.92;;
21060;SDS011;10689;50.836;3.266;2022-09-14T15:30:46;43.13;;;26.08;;
21060;SDS011;10689;50.836;3.266;2022-09-14T15:33:12;48.78;;;27.67;;
21060;SDS011;10689;50.836;3.266;2022-09-14T15:35:38;48.75;;;29.00;;
21060;SDS011;10689;50.836;3.266;2022-09-14T15:38:04;44.08;;;27.13;;
21060;SDS011;10689;50.836;3.266;2022-09-14T15:40:30;52.13;;;33.33;;
21060;SDS011;10689;50.836;3.266;2022-09-14T15:42:56;47.15;;;28.92;;
21060;SDS011;10689;50.836;3.266;2022-09-14T15:45:22;45.40;;;27.52;;
21060;SDS011;10689;50.836;3.266;2022-09-14T15:47:47;48.10;;;30.30;;
21060;SDS011;10689;50.836;3.266;2022-09-14T15:50:13;47.13;;;29.27;;
21060;SDS011;10689;50.836;3.266;2022-09-14T15:52:39;44.97;;;27.95;;
21060;SDS011;10689;50.836;3.266;2022-09-14T15:55:06;42.85;;;26.42;;
21060;SDS011;10689;50.836;3.266;2022-09-14T15:57:33;46.00;;;26.52;;
21060;SDS011;10689;50.836;3.266;2022-09-14T16:00:00;52.08;;;28.95;;
21060;SDS011;10689;50.836;3.266;2022-09-14T16:02:27;49.45;;;28.35;;
21060;SDS011;10689;50.836;3.266;2022-09-14T16:04:52;45.08;;;27.42;;
21060;SDS011;10689;50.836;3.266;2022-09-14T16:07:18;47.72;;;28.73;;
21060;SDS011;10689;50.836;3.266;2022-09-14T16:09:44;45.80;;;28.38;;
21060;SDS011;10689;50.836;3.266;2022-09-14T16:12:10;38.67;;;25.00;;
21060;SDS011;10689;50.836;3.266;2022-09-14T16:14:37;44.20;;;25.63;;
21060;SDS011;10689;50.836;3.266;2022-09-14T16:17:03;45.83;;;26.92;;
21060;SDS011;10689;50.836;3.266;2022-09-14T16:19:29;42.03;;;26.27;;
21060;SDS011;10689;50.836;3.266;2022-09-14T16:21:59;40.50;;;25.75;;
21060;SDS011;10689;50.836;3.266;2022-09-14T16:24:25;45.20;;;26.33;;
21060;SDS011;10689;50.836;3.266;2022-09-14T16:26:51;38.67;;;25.52;;
21060;SDS011;10689;50.836;3.266;2022-09-14T16:29:21;40.75;;;24.77;;
21060;SDS011;10689;50.836;3.266;2022-09-14T16:31:48;39.30;;;21.83;;
21060;SDS011;10689;50.836;3.266;2022-09-14T16:34:19;34.05;;;20.70;;
21060;SDS011;10689;50.836;3.266;2022-09-14T16:36:47;33.63;;;20.30;;
21060;SDS011;10689;50.836;3.266;2022-09-14T16:39:14;31.45;;;18.30;;
21060;SDS011;10689;50.836;3.266;2022-09-14T16:41:41;28.70;;;17.42;;
21060;SDS011;10689;50.836;3.266;2022-09-14T16:44:15;30.08;;;18.45;;
21060;SDS011;10689;50.836;3.266;2022-09-14T16:46:45;31.65;;;18.42;;
21060;SDS011;10689;50.836;3.266;2022-09-14T16:49:12;35.38;;;20.38;;
21060;SDS011;10689;50.836;3.266;2022-09-14T16:51:38;38.50;;;20.85;;
21060;SDS011;10689;50.836;3.266;2022-09-14T16:54:04;39.58;;;22.55;;
21060;SDS011;10689;50.836;3.266;2022-09-14T16:56:32;41.45;;;23.75;;
21060;SDS011;10689;50.836;3.266;2022-09-14T16:58:59;34.97;;;20.35;;
21060;SDS011;10689;50.836;3.266;2022-09-14T17:01:30;30.45;;;18.52;;
21060;SDS011;10689;50.836;3.266;2022-09-14T17:04:02;32.03;;;18.98;;
21060;SDS011;10689;50.836;3.266;2022-09-14T17:06:33;21.98;;;16.33;;
21060;SDS011;10689;50.836;3.266;2022-09-14T17:09:02;22.95;;;14.90;;